Time;durP1;ratioP1;P1;durP2;ratioP2;P2;SDS_P1;SDS_P2;PMS_P1;PMS_P2;Temp;Humidity;BMP_temperature;BMP_pressure;BME280_temperature;BME280_humidity;BME280_pressure;Samples;Min_cycle;Max_cycle;Signal;HPM_P1;HPM_P2
2022/10/05 00:00:52;;;;;;;3.17;2.80;;;19.20;69.30;20.20;101075.00;;;;4972790;28;20575;-47
2022/10/05 00:03:19;;;;;;;3.03;2.83;;;19.20;69.40;20.30;101078.00;;;;4971065;28;20228;-46
2022/10/05 00:05:46;;;;;;;2.80;2.60;;;19.20;69.40;20.20;101080.00;;;;4973078;28;20307;-48
2022/10/05 00:08:16;;;;;;;3.43;2.60;;;19.20;69.40;20.20;101066.00;;;;4974416;28;20288;-44
2022/10/05 00:10:42;;;;;;;2.80;2.60;;;19.20;69.30;20.20;101071.00;;;;4973193;28;20177;-45
2022/10/05 00:13:16;;;;;;;2.90;2.70;;;19.10;69.20;20.20;101060.00;;;;4970802;28;20264;-48
2022/10/05 00:15:42;;;;;;;3.70;2.70;;;19.10;69.30;20.20;101065.00;;;;4970683;28;20209;-48
2022/10/05 00:18:19;;;;;;;3.30;3.00;;;19.10;69.30;20.20;101061.00;;;;4970678;28;20281;-45
2022/10/05 00:20:45;;;;;;;2.80;2.60;;;19.10;69.40;20.20;101058.00;;;;4970703;28;20234;-47
2022/10/05 00:23:26;;;;;;;2.77;2.57;;;19.10;69.30;20.20;101055.00;;;;4971686;28;20182;-45
2022/10/05 00:25:52;;;;;;;2.80;2.60;;;19.10;69.30;20.20;101049.00;;;;4971647;28;20189;-46
2022/10/05 00:28:28;;;;;;;3.10;2.80;;;19.10;69.30;20.20;101061.00;;;;4973333;28;20653;-45
2022/10/05 00:30:58;;;;;;;2.60;2.40;;;19.10;69.30;20.20;101044.00;;;;4970967;28;20209;-46
2022/10/05 00:33:25;;;;;;;2.97;2.77;;;19.10;69.40;20.20;101051.00;;;;4971472;28;20189;-46
2022/10/05 00:35:51;;;;;;;3.97;2.90;;;19.10;69.40;20.10;101049.00;;;;4971931;28;20207;-46
2022/10/05 00:38:16;;;;;;;2.67;2.47;;;19.10;69.30;20.10;101049.00;;;;4971732;28;20260;-46
2022/10/05 00:41:01;;;;;;;2.80;2.60;;;19.10;69.30;20.20;101048.00;;;;4971794;28;20761;-45
2022/10/05 00:43:52;;;;;;;3.10;2.70;;;19.10;69.20;20.10;101037.00;;;;4970039;28;20578;-45
2022/10/05 00:46:54;;;;;;;3.00;2.70;;;19.10;69.30;20.10;100986.00;;;;4970589;28;20226;-45
2022/10/05 00:49:57;;;;;;;3.10;2.80;;;19.10;69.30;20.10;101044.00;;;;4969633;28;20284;-46
2022/10/05 00:53:00;;;;;;;3.23;2.83;;;19.10;69.20;20.10;101049.00;;;;4971428;28;20174;-47
2022/10/05 00:55:51;;;;;;;2.73;2.53;;;19.10;69.00;20.00;101046.00;;;;4970027;28;20196;-45
2022/10/05 00:58:27;;;;;;;3.17;2.83;;;19.10;69.10;20.00;101045.00;;;;4971185;28;20201;-46
2022/10/05 01:01:13;;;;;;;2.93;2.73;;;19.10;69.00;20.00;101052.00;;;;4969998;28;20154;-46
2022/10/05 01:04:12;;;;;;;2.80;2.60;;;19.10;69.00;20.00;101063.00;;;;4953498;28;20173;-46
2022/10/05 01:07:05;;;;;;;2.67;2.47;;;19.10;69.10;20.00;101057.00;;;;4970798;28;20220;-47
2022/10/05 01:09:55;;;;;;;3.50;3.00;;;19.00;69.00;20.00;101043.00;;;;4969711;28;20175;-45
2022/10/05 01:13:06;;;;;;;2.80;2.60;;;19.00;68.90;20.00;101050.00;;;;4969607;28;20638;-45
2022/10/05 01:15:50;;;;;;;2.60;2.40;;;19.00;69.00;20.00;101030.00;;;;4969267;28;20212;-45
2022/10/05 01:18:32;;;;;;;2.83;2.60;;;19.00;69.00;20.00;101039.00;;;;4969853;28;20239;-48
2022/10/05 01:21:09;;;;;;;3.03;2.80;;;19.00;69.00;20.00;101041.00;;;;4969087;28;20200;-47
2022/10/05 01:24:14;;;;;;;3.00;2.50;;;19.00;69.10;20.00;101047.00;;;;4970466;28;20157;-47
2022/10/05 01:27:51;;;;;;;3.23;2.70;;;19.00;69.20;19.90;101040.00;;;;4970752;28;20820;-46
2022/10/05 01:30:19;;;;;;;3.00;2.40;;;18.90;69.10;19.90;101039.00;;;;4929941;29;20323;-48
2022/10/05 01:33:15;;;;;;;3.43;2.70;;;18.90;69.20;19.90;101046.00;;;;4929627;29;20226;-47
2022/10/05 01:36:08;;;;;;;2.57;2.37;;;18.90;69.20;19.90;101036.00;;;;4956722;28;20213;-46
2022/10/05 01:38:48;;;;;;;2.70;2.50;;;18.90;69.10;19.90;101038.00;;;;4969351;28;20945;-46
2022/10/05 01:42:00;;;;;;;2.73;2.50;;;18.90;69.10;19.90;101037.00;;;;4969258;28;20153;-45
2022/10/05 01:44:35;;;;;;;3.00;2.60;;;18.90;69.10;19.90;101032.00;;;;4947454;28;20272;-46
2022/10/05 01:47:22;;;;;;;2.60;2.40;;;18.90;69.10;19.90;101022.00;;;;4969279;28;20275;-45
2022/10/05 01:50:14;;;;;;;2.80;2.60;;;18.90;69.00;19.70;101028.00;;;;4969034;28;20252;-47
2022/10/05 01:53:11;;;;;;;2.70;2.50;;;18.90;69.00;19.90;101026.00;;;;4969337;28;20245;-47
2022/10/05 01:56:13;;;;;;;2.73;2.53;;;18.90;69.00;19.80;101014.00;;;;4969206;28;20208;-46
2022/10/05 01:59:06;;;;;;;2.60;2.40;;;18.90;69.10;19.80;101004.00;;;;4960874;28;20556;-46
2022/10/05 02:01:40;;;;;;;2.80;2.60;;;18.80;69.00;19.80;101016.00;;;;4972162;28;20722;-47
2022/10/05 02:04:47;;;;;;;2.63;2.43;;;18.80;69.10;19.80;101004.00;;;;4970528;28;20173;-45
2022/10/05 02:07:22;;;;;;;2.67;2.47;;;18.80;69.20;19.60;101008.00;;;;4984886;28;20296;-45
2022/10/05 02:10:13;;;;;;;2.70;2.50;;;18.80;69.20;19.80;101004.00;;;;4968574;28;20156;-45
2022/10/05 02:12:38;;;;;;;2.77;2.50;;;18.80;69.20;19.80;101000.00;;;;4969445;28;20200;-45
2022/10/05 02:15:17;;;;;;;3.00;2.80;;;18.80;69.20;19.80;100997.00;;;;4969331;28;20244;-46
2022/10/05 02:17:49;;;;;;;2.93;2.40;;;18.80;69.20;19.80;101001.00;;;;4968843;28;20597;-45
2022/10/05 02:20:24;;;;;;;2.63;2.40;;;18.80;69.30;19.80;100985.00;;;;4969813;28;20173;-46
2022/10/05 02:22:56;;;;;;;2.70;2.50;;;18.80;69.20;19.80;100990.00;;;;4952653;28;20164;-46
2022/10/05 02:25:26;;;;;;;2.97;2.67;;;18.80;69.20;19.80;100999.00;;;;4968449;28;20267;-45
2022/10/05 02:28:05;;;;;;;2.73;2.53;;;18.80;69.20;19.80;100995.00;;;;4968569;28;20201;-46
2022/10/05 02:30:31;;;;;;;2.70;2.50;;;18.80;69.20;19.80;100989.00;;;;4968739;28;20165;-45
2022/10/05 02:33:17;;;;;;;2.77;2.57;;;18.80;69.30;19.80;100982.00;;;;4968042;28;20191;-45
2022/10/05 02:35:42;;;;;;;2.70;2.50;;;18.80;69.30;19.80;101003.00;;;;4969092;28;20200;-46
2022/10/05 02:38:26;;;;;;;2.87;2.67;;;18.80;69.30;19.80;100992.00;;;;4968874;28;20250;-45
2022/10/05 02:41:12;;;;;;;2.50;2.30;;;18.80;69.30;19.70;100998.00;;;;4969606;28;20161;-48
2022/10/05 02:43:41;;;;;;;2.67;2.47;;;18.70;69.20;19.70;100991.00;;;;4968106;28;20263;-45
2022/10/05 02:46:18;;;;;;;2.70;2.50;;;18.70;69.10;19.70;100994.00;;;;4968481;28;20255;-46
2022/10/05 02:49:23;;;;;;;2.80;2.60;;;18.70;69.20;19.70;100990.00;;;;4969480;28;20246;-47
2022/10/05 02:52:04;;;;;;;2.60;2.40;;;18.70;69.20;19.70;100990.00;;;;4969322;28;20244;-45
2022/10/05 02:55:06;;;;;;;2.60;2.40;;;18.70;69.10;19.70;100987.00;;;;4969223;28;20168;-47
2022/10/05 02:57:41;;;;;;;2.53;2.33;;;18.70;69.10;19.70;100992.00;;;;4968590;28;20658;-46
2022/10/05 03:00:12;;;;;;;2.60;2.40;;;18.70;69.20;19.70;100980.00;;;;4968109;28;20168;-46
2022/10/05 03:03:20;;;;;;;2.83;2.63;;;18.70;69.20;19.70;100985.00;;;;4968029;28;20173;-47
2022/10/05 03:06:01;;;;;;;2.80;2.60;;;18.60;69.10;19.60;100990.00;;;;4968799;28;20259;-46
2022/10/05 03:08:44;;;;;;;2.40;2.30;;;18.60;69.20;19.60;100984.00;;;;4967907;28;20239;-46
2022/10/05 03:11:39;;;;;;;2.50;2.30;;;18.60;69.20;19.60;100985.00;;;;4967817;28;20237;-46
2022/10/05 03:14:31;;;;;;;2.60;2.40;;;18.60;69.10;19.60;100988.00;;;;4967868;28;20149;-46
2022/10/05 03:17:17;;;;;;;2.70;2.50;;;18.60;69.20;19.60;100952.00;;;;4951885;28;20259;-46
2022/10/05 03:20:09;;;;;;;2.60;2.40;;;18.60;69.10;19.60;100996.00;;;;4968449;28;20153;-44
2022/10/05 03:22:54;;;;;;;2.90;2.70;;;18.60;69.10;19.60;100960.00;;;;4968458;28;20208;-46
2022/10/05 03:25:51;;;;;;;2.70;2.50;;;18.60;69.10;19.60;100976.00;;;;4967876;28;20212;-45
2022/10/05 03:28:32;;;;;;;4.20;2.40;;;18.60;69.10;19.60;100978.00;;;;4963302;28;20315;-46
2022/10/05 03:31:19;;;;;;;3.33;2.50;;;18.60;69.50;19.60;100979.00;;;;4969344;28;20176;-46
2022/10/05 03:33:55;;;;;;;2.80;2.60;;;18.60;69.20;19.50;100949.00;;;;4967504;28;20244;-46
2022/10/05 03:36:45;;;;;;;5.13;2.50;;;18.60;69.20;19.50;100972.00;;;;4967937;28;20196;-48
2022/10/05 03:39:29;;;;;;;2.80;2.60;;;18.60;70.00;19.50;100972.00;;;;4967753;28;20177;-46
2022/10/05 03:42:25;;;;;;;4.77;2.60;;;18.60;69.20;19.50;100966.00;;;;4967889;28;20165;-45
2022/10/05 03:45:31;;;;;;;3.23;2.70;;;18.50;69.10;19.50;100964.00;;;;4971204;28;20173;-45
2022/10/05 03:48:27;;;;;;;2.67;2.47;;;18.50;69.60;19.50;100963.00;;;;4971968;28;20200;-46
2022/10/05 03:51:04;;;;;;;3.77;2.53;;;18.50;69.80;19.50;100962.00;;;;4973050;28;20162;-45
2022/10/05 03:54:18;;;;;;;11.03;3.10;;;18.50;69.60;19.50;100958.00;;;;4971639;28;20153;-44
2022/10/05 03:57:09;;;;;;;3.53;2.73;;;18.50;69.60;19.50;100958.00;;;;4974135;28;20239;-45
2022/10/05 03:59:50;;;;;;;3.37;2.40;;;18.50;69.60;19.50;100963.00;;;;4975036;28;20607;-46
2022/10/05 04:02:24;;;;;;;8.73;2.87;;;18.50;69.40;19.50;100926.00;;;;4973947;28;20188;-45
2022/10/05 04:05:21;;;;;;;5.00;2.83;;;18.50;69.40;19.50;100945.00;;;;4971973;28;20313;-46
2022/10/05 04:08:52;;;;;;;4.93;2.47;;;18.50;69.40;19.50;100937.00;;;;4983729;28;20223;-46
2022/10/05 04:11:28;;;;;;;5.50;2.77;;;18.50;69.40;19.50;100941.00;;;;4937278;28;20189;-48
2022/10/05 04:14:06;;;;;;;6.03;2.40;;;18.50;69.20;19.50;100938.00;;;;4971400;28;20177;-45
2022/10/05 04:16:35;;;;;;;4.37;2.60;;;18.50;69.30;19.50;100949.00;;;;4971781;28;20271;-48
2022/10/05 04:19:20;;;;;;;6.57;2.70;;;18.40;69.20;19.50;100940.00;;;;4971513;28;20661;-47
2022/10/05 04:22:05;;;;;;;3.60;2.63;;;18.40;69.20;19.40;100941.00;;;;4971359;28;20200;-46
2022/10/05 04:24:48;;;;;;;5.10;2.60;;;18.40;69.20;19.50;100942.00;;;;4971292;28;20211;-46
2022/10/05 04:27:20;;;;;;;4.80;2.60;;;18.40;69.20;19.40;100936.00;;;;4971535;28;20797;-46
2022/10/05 04:29:54;;;;;;;4.93;2.57;;;18.40;69.20;19.10;100938.00;;;;4951562;28;20186;-47
2022/10/05 04:32:40;;;;;;;4.27;2.60;;;18.30;69.10;19.40;100934.00;;;;4970899;28;20561;-45
2022/10/05 04:35:52;;;;;;;4.63;2.87;;;18.40;69.30;19.40;100942.00;;;;4971491;28;20161;-46
2022/10/05 04:38:58;;;;;;;3.23;2.60;;;18.40;69.30;19.40;100939.00;;;;4972121;28;20162;-46
2022/10/05 04:41:55;;;;;;;5.30;3.00;;;18.30;69.10;19.40;100944.00;;;;4971867;28;20201;-46
2022/10/05 04:44:46;;;;;;;4.17;2.73;;;18.30;69.00;19.40;100936.00;;;;4970733;28;20176;-46
2022/10/05 04:47:26;;;;;;;6.17;2.93;;;18.30;69.00;19.40;100950.00;;;;4970863;28;20886;-46
2022/10/05 04:50:43;;;;;;;10.00;3.00;;;18.30;69.00;19.30;100938.00;;;;4970792;28;20230;-45
2022/10/05 04:53:34;;;;;;;10.27;3.33;;;18.30;68.90;19.30;100940.00;;;;4970860;28;20223;-46
2022/10/05 04:56:25;;;;;;;11.47;3.53;;;18.30;68.80;19.30;100949.00;;;;4950316;28;20784;-45
2022/10/05 04:59:00;;;;;;;13.40;3.50;;;18.30;68.80;19.30;100941.00;;;;4970118;28;20185;-45
2022/10/05 05:01:40;;;;;;;9.23;3.37;;;18.30;69.00;19.30;100939.00;;;;4985686;28;20156;-44
2022/10/05 05:04:37;;;;;;;11.43;3.90;;;18.30;68.90;19.30;100936.00;;;;4970404;28;20908;-48
2022/10/05 05:07:41;;;;;;;11.13;3.90;;;18.30;68.80;19.30;100956.00;;;;4970115;28;20209;-46
2022/10/05 05:11:08;;;;;;;11.27;3.87;;;18.30;68.80;19.30;100949.00;;;;4954945;28;20718;-45
2022/10/05 05:14:06;;;;;;;14.60;3.80;;;18.30;68.80;19.30;100951.00;;;;4940627;29;20822;-46
2022/10/05 05:16:53;;;;;;;9.77;4.07;;;18.20;68.80;19.30;100950.00;;;;4970456;28;20193;-46
2022/10/05 05:19:37;;;;;;;7.53;3.60;;;18.30;68.90;19.30;100948.00;;;;4970461;28;20164;-46
2022/10/05 05:22:24;;;;;;;7.70;3.80;;;18.20;68.80;19.30;100955.00;;;;4971603;28;20742;-45
2022/10/05 05:25:11;;;;;;;7.20;3.73;;;18.30;68.90;19.20;100952.00;;;;4985985;28;20188;-43
2022/10/05 05:27:51;;;;;;;11.27;3.80;;;18.30;68.80;19.20;100945.00;;;;4971192;28;20288;-46
2022/10/05 05:30:34;;;;;;;8.60;3.90;;;18.30;68.90;19.20;100952.00;;;;4969723;28;20157;-46
2022/10/05 05:33:11;;;;;;;6.93;3.90;;;18.20;68.60;19.20;100945.00;;;;4970985;28;20181;-45
2022/10/05 05:35:56;;;;;;;7.10;3.40;;;18.20;68.70;19.20;100944.00;;;;4986263;28;20190;-46
2022/10/05 05:38:27;;;;;;;6.87;3.50;;;18.20;68.70;19.20;100946.00;;;;4969616;28;20745;-46
2022/10/05 05:41:02;;;;;;;8.77;3.90;;;18.20;68.70;19.20;100943.00;;;;4970501;28;20162;-45
2022/10/05 05:43:46;;;;;;;7.47;3.70;;;18.20;68.80;19.20;100943.00;;;;4968990;28;20550;-46
2022/10/05 05:46:38;;;;;;;8.63;3.57;;;18.20;68.80;19.20;100942.00;;;;4969611;28;20197;-46
2022/10/05 05:49:14;;;;;;;6.20;3.40;;;18.20;68.70;19.20;100935.00;;;;4969718;28;20616;-46
2022/10/05 05:51:47;;;;;;;7.43;3.53;;;18.20;68.70;19.20;100943.00;;;;4987552;28;20165;-45
2022/10/05 05:54:23;;;;;;;6.90;3.60;;;18.20;68.70;19.20;100947.00;;;;4985618;28;20177;-45
2022/10/05 05:57:07;;;;;;;5.00;3.60;;;18.10;68.60;19.20;100947.00;;;;4986388;28;20750;-45
2022/10/05 05:59:59;;;;;;;5.20;3.57;;;18.10;68.70;19.20;100949.00;;;;4970990;28;20216;-45
2022/10/05 06:02:30;;;;;;;5.43;3.30;;;18.10;68.60;19.10;100949.00;;;;4970429;28;20245;-45
2022/10/05 06:05:00;;;;;;;5.93;3.30;;;18.10;68.60;19.10;100943.00;;;;4969156;28;20185;-45
2022/10/05 06:07:28;;;;;;;7.60;3.70;;;18.20;68.80;19.10;100945.00;;;;4969230;28;20301;-46
2022/10/05 06:10:25;;;;;;;4.43;3.40;;;18.10;68.60;19.10;100945.00;;;;4985580;28;20678;-44
2022/10/05 06:12:53;;;;;;;5.07;3.53;;;18.10;68.70;19.10;100953.00;;;;4970101;28;20169;-43
2022/10/05 06:16:04;;;;;;;3.50;3.10;;;18.10;68.70;19.10;100944.00;;;;4970228;28;20204;-47
2022/10/05 06:18:29;;;;;;;4.93;3.33;;;18.10;68.60;19.10;100899.00;;;;4961584;28;20197;-46
2022/10/05 06:21:26;;;;;;;3.50;3.20;;;18.10;68.60;19.10;100958.00;;;;4968642;28;20641;-45
2022/10/05 06:24:24;;;;;;;4.90;3.30;;;18.10;68.60;19.10;100954.00;;;;4968965;28;20168;-45
2022/10/05 06:27:35;;;;;;;6.00;3.30;;;18.10;68.60;19.10;100961.00;;;;4985014;28;20255;-46
2022/10/05 06:30:13;;;;;;;3.73;3.30;;;18.10;68.60;19.10;100947.00;;;;4969825;28;20669;-46
2022/10/05 06:32:57;;;;;;;5.97;3.10;;;18.10;68.60;19.10;100962.00;;;;4984887;28;20172;-46
2022/10/05 06:36:17;;;;;;;3.60;3.10;;;18.00;68.60;19.10;100945.00;;;;4969951;28;20193;-44
2022/10/05 06:39:12;;;;;;;3.77;3.20;;;18.00;68.60;19.00;100954.00;;;;4960107;28;20343;-46
2022/10/05 06:42:03;;;;;;;3.43;2.90;;;18.10;68.60;19.00;100958.00;;;;4970087;28;20177;-46
2022/10/05 06:44:53;;;;;;;3.67;3.37;;;18.10;68.60;19.00;100971.00;;;;4968992;28;20176;-45
2022/10/05 06:47:30;;;;;;;4.10;3.00;;;18.10;68.50;19.00;100955.00;;;;4952645;28;20215;-46
2022/10/05 06:50:11;;;;;;;3.50;3.20;;;18.00;68.40;19.00;100950.00;;;;4969001;28;20165;-45
2022/10/05 06:52:56;;;;;;;3.20;2.90;;;18.00;68.40;19.00;100938.00;;;;4969010;28;20161;-45
2022/10/05 06:55:55;;;;;;;4.77;3.17;;;18.00;68.40;19.00;100926.00;;;;4968550;28;20234;-45
2022/10/05 06:59:05;;;;;;;3.87;2.90;;;18.00;68.40;19.00;100950.00;;;;4968507;28;20183;-46
2022/10/05 07:01:59;;;;;;;3.37;3.07;;;18.00;68.40;19.00;100935.00;;;;4981855;28;20598;-45
2022/10/05 07:05:19;;;;;;;5.53;3.23;;;18.00;68.60;19.00;100942.00;;;;4984886;28;20253;-46
2022/10/05 07:07:58;;;;;;;5.83;2.93;;;18.00;68.60;19.00;100939.00;;;;4968808;28;20196;-45
2022/10/05 07:10:45;;;;;;;4.87;3.30;;;18.00;68.60;19.00;100948.00;;;;4968631;28;20164;-46
2022/10/05 07:13:54;;;;;;;4.00;3.10;;;18.00;68.40;19.00;100945.00;;;;4968332;28;20816;-44
2022/10/05 07:16:30;;;;;;;3.77;3.10;;;18.00;68.50;19.00;100944.00;;;;4969785;28;20269;-47
2022/10/05 07:19:29;;;;;;;3.70;3.20;;;18.00;68.60;19.00;100943.00;;;;4985696;28;20811;-46
2022/10/05 07:22:23;;;;;;;3.80;3.30;;;18.00;68.50;19.00;100946.00;;;;4973388;28;20299;-47
2022/10/05 07:25:21;;;;;;;4.13;3.00;;;18.00;68.50;19.00;100959.00;;;;4973639;28;20173;-46
2022/10/05 07:28:00;;;;;;;3.10;2.80;;;18.00;68.40;19.00;100946.00;;;;4972223;28;20200;-46
2022/10/05 07:30:26;;;;;;;3.43;3.13;;;18.00;68.40;19.00;100949.00;;;;4987799;28;20152;-45
2022/10/05 07:33:11;;;;;;;3.67;3.27;;;18.00;68.40;19.00;100952.00;;;;4971380;28;20180;-46
2022/10/05 07:39:04;;;;;;;7.23;3.50;;;18.00;68.60;18.90;100963.00;;;;4971507;28;20178;-47
2022/10/05 07:41:44;;;;;;;3.50;3.00;;;18.00;68.70;19.00;100960.00;;;;4972014;28;20200;-48
2022/10/05 07:44:25;;;;;;;5.20;3.03;;;18.00;68.80;19.00;100958.00;;;;4972796;28;20184;-46
2022/10/05 07:46:59;;;;;;;3.70;3.00;;;18.00;69.10;19.00;100958.00;;;;4989170;28;20227;-46
2022/10/05 07:49:42;;;;;;;3.87;2.87;;;18.00;69.30;19.00;100952.00;;;;4958701;28;20199;-45
2022/10/05 07:52:37;;;;;;;4.87;3.03;;;18.00;69.50;19.00;100958.00;;;;4972652;28;20172;-45
2022/10/05 07:55:31;;;;;;;3.40;3.10;;;18.00;69.90;19.00;100960.00;;;;4973090;28;20156;-44
2022/10/05 07:58:28;;;;;;;6.47;3.30;;;18.00;70.00;19.00;100964.00;;;;4973120;28;20192;-47
2022/10/05 08:01:18;;;;;;;5.90;3.40;;;18.10;70.60;19.00;100960.00;;;;4917698;28;20551;-47
2022/10/05 08:04:01;;;;;;;7.43;3.50;;;18.00;70.40;19.00;100968.00;;;;4964133;28;20168;-46
2022/10/05 08:06:55;;;;;;;4.63;3.13;;;18.10;70.50;18.90;100968.00;;;;4987996;28;20200;-46
2022/10/05 08:09:42;;;;;;;25.90;5.03;;;18.00;70.40;18.90;100966.00;;;;4971765;28;20183;-46
2022/10/05 08:12:49;;;;;;;13.13;3.40;;;18.00;71.00;19.00;100973.00;;;;4971955;28;20227;-46
2022/10/05 08:15:19;;;;;;;10.23;3.30;;;18.00;70.90;19.00;100972.00;;;;4971343;28;20582;-45
2022/10/05 08:18:04;;;;;;;12.60;3.40;;;18.00;70.80;19.00;100953.00;;;;4971787;28;20243;-45
2022/10/05 08:20:50;;;;;;;8.73;2.90;;;18.10;70.80;19.00;100969.00;;;;4954108;28;20169;-45
2022/10/05 08:23:24;;;;;;;5.40;3.47;;;18.10;70.90;18.80;100973.00;;;;4968516;28;20252;-44
2022/10/05 08:26:15;;;;;;;10.37;3.50;;;18.10;70.80;19.00;100966.00;;;;4967240;28;20268;-43
2022/10/05 08:28:49;;;;;;;8.43;3.67;;;18.10;70.80;19.00;100967.00;;;;4965205;28;20836;-44
2022/10/05 08:31:19;;;;;;;8.57;3.10;;;18.10;70.90;19.00;100972.00;;;;4966260;28;20188;-46
2022/10/05 08:34:16;;;;;;;8.13;2.93;;;18.10;70.80;19.10;100975.00;;;;4968045;28;20188;-45
2022/10/05 08:36:48;;;;;;;9.47;3.17;;;18.10;70.90;19.10;100961.00;;;;4964224;28;20334;-45
2022/10/05 08:39:17;;;;;;;6.17;3.33;;;18.10;70.80;19.10;100970.00;;;;4967734;28;20162;-47
2022/10/05 08:42:08;;;;;;;9.83;3.00;;;18.10;70.70;19.10;100968.00;;;;4966196;28;20188;-44
2022/10/05 08:45:13;;;;;;;5.90;3.10;;;18.10;70.80;19.10;100958.00;;;;4971014;28;20298;-44
2022/10/05 08:48:03;;;;;;;9.43;3.30;;;18.10;71.90;19.10;100963.00;;;;4972251;28;20228;-47
2022/10/05 08:50:44;;;;;;;11.60;3.30;;;18.10;71.30;19.10;100957.00;;;;4956840;28;20635;-44
2022/10/05 08:53:32;;;;;;;10.90;3.60;;;18.10;71.60;19.10;100952.00;;;;4972320;28;20795;-45
2022/10/05 08:56:12;;;;;;;6.70;2.90;;;18.10;71.70;19.10;100960.00;;;;4957064;28;20666;-44
2022/10/05 08:59:05;;;;;;;9.07;3.13;;;18.20;72.20;19.10;100952.00;;;;4971378;28;20547;-44
2022/10/05 09:02:14;;;;;;;11.40;3.40;;;18.20;72.30;19.10;100954.00;;;;4972114;28;20181;-45
2022/10/05 09:04:58;;;;;;;5.10;3.27;;;18.20;72.10;19.10;100942.00;;;;4971985;28;20157;-44
2022/10/05 09:07:59;;;;;;;4.97;3.00;;;18.20;71.90;19.10;100949.00;;;;4989490;28;20228;-46
2022/10/05 09:10:53;;;;;;;6.50;2.93;;;18.10;71.70;19.10;100939.00;;;;4990179;28;20288;-46
2022/10/05 09:14:02;;;;;;;5.53;3.10;;;18.10;71.60;19.10;100940.00;;;;4929163;28;20173;-45
2022/10/05 09:17:15;;;;;;;13.27;2.80;;;18.10;71.70;19.10;100944.00;;;;4971117;28;20276;-46
2022/10/05 09:20:11;;;;;;;5.13;2.90;;;18.10;71.50;19.10;100933.00;;;;4951215;29;20716;-46
2022/10/05 09:23:21;;;;;;;7.00;3.07;;;18.10;71.40;19.10;100935.00;;;;4950765;29;20177;-46
2022/10/05 09:26:00;;;;;;;7.20;2.90;;;18.10;71.40;19.10;100951.00;;;;4969750;28;20844;-46
2022/10/05 09:29:19;;;;;;;8.03;3.17;;;18.10;71.30;19.10;100949.00;;;;4969179;28;20219;-46
2022/10/05 09:32:26;;;;;;;6.97;3.10;;;18.10;71.30;19.10;100931.00;;;;4957290;28;20662;-46
2022/10/05 09:35:25;;;;;;;5.73;3.10;;;18.10;71.20;19.10;100941.00;;;;4969963;28;20161;-47
2022/10/05 09:38:27;;;;;;;5.07;2.80;;;18.10;71.40;19.10;100938.00;;;;4970797;28;20157;-45
2022/10/05 09:41:26;;;;;;;5.60;2.83;;;18.00;71.20;19.10;100940.00;;;;4972650;28;20343;-45
2022/10/05 09:44:31;;;;;;;4.67;2.80;;;18.00;71.10;19.10;100914.00;;;;4972986;28;20177;-45
2022/10/05 09:47:36;;;;;;;4.37;2.90;;;18.10;71.30;19.10;100927.00;;;;4949106;28;20296;-45
2022/10/05 09:50:36;;;;;;;7.37;2.83;;;18.10;71.00;19.10;100917.00;;;;4971255;28;20248;-46
2022/10/05 09:53:53;;;;;;;6.33;2.90;;;18.10;71.00;19.10;100921.00;;;;4955229;28;20193;-44
2022/10/05 09:56:55;;;;;;;3.03;2.63;;;18.10;70.90;19.10;100925.00;;;;4941986;28;20637;-45
2022/10/05 09:59:33;;;;;;;6.57;2.70;;;18.10;70.90;19.10;100919.00;;;;4972376;28;20169;-46
2022/10/05 10:02:13;;;;;;;4.77;2.60;;;18.10;70.80;19.10;100925.00;;;;4971268;28;20184;-45
2022/10/05 10:05:04;;;;;;;4.57;2.60;;;18.10;70.70;19.10;100916.00;;;;4970840;28;20224;-46
2022/10/05 10:08:04;;;;;;;4.10;2.87;;;18.10;70.80;19.10;100913.00;;;;4970944;28;20209;-45
2022/10/05 10:10:46;;;;;;;5.50;2.63;;;18.10;70.70;19.10;100916.00;;;;4970918;28;20162;-46
2022/10/05 10:13:40;;;;;;;3.13;2.70;;;18.10;70.60;19.10;100912.00;;;;4969482;28;20185;-44
2022/10/05 10:16:15;;;;;;;3.93;2.70;;;18.10;70.70;19.10;100911.00;;;;4970573;28;20850;-44
2022/10/05 10:19:03;;;;;;;3.20;2.60;;;18.10;70.70;19.10;100911.00;;;;4969150;28;20183;-44
2022/10/05 10:22:05;;;;;;;3.53;2.83;;;18.10;70.70;19.10;100908.00;;;;4970946;28;20176;-44
2022/10/05 10:25:01;;;;;;;3.50;2.53;;;18.00;70.70;19.10;100904.00;;;;4969100;28;20646;-47
2022/10/05 10:27:39;;;;;;;2.60;2.40;;;18.10;70.70;19.10;100912.00;;;;4969949;28;20555;-43
2022/10/05 10:30:23;;;;;;;3.77;2.60;;;18.00;70.70;19.10;100915.00;;;;4970260;28;20180;-45
2022/10/05 10:33:46;;;;;;;2.80;2.40;;;18.10;70.80;19.10;100909.00;;;;4969355;28;20281;-46
2022/10/05 10:36:50;;;;;;;3.70;2.60;;;18.10;70.90;19.10;100906.00;;;;4947253;28;20693;-47
2022/10/05 10:39:54;;;;;;;3.73;2.60;;;18.10;70.70;19.10;100910.00;;;;4970281;28;20176;-47
2022/10/05 10:42:31;;;;;;;2.70;2.50;;;18.10;70.70;19.10;100909.00;;;;4969887;28;20185;-45
2022/10/05 10:45:16;;;;;;;2.83;2.63;;;18.10;70.80;19.10;100876.00;;;;4970002;28;20200;-46
2022/10/05 10:48:44;;;;;;;2.83;2.50;;;18.10;70.70;19.10;100883.00;;;;4969270;28;20590;-47
2022/10/05 10:51:46;;;;;;;3.87;2.60;;;18.10;70.70;19.10;100884.00;;;;4953866;28;20184;-45
2022/10/05 10:54:41;;;;;;;2.83;2.60;;;18.20;70.70;19.10;100882.00;;;;4969266;28;20188;-44
2022/10/05 10:57:22;;;;;;;2.70;2.50;;;18.20;70.60;19.10;100882.00;;;;4969831;28;20216;-47
2022/10/05 11:00:18;;;;;;;3.60;2.73;;;18.20;70.60;19.20;100897.00;;;;4969808;28;20549;-45
2022/10/05 11:03:11;;;;;;;2.70;2.50;;;18.30;70.60;19.20;100889.00;;;;4971174;28;20177;-45
2022/10/05 11:06:32;;;;;;;2.83;2.53;;;18.20;70.50;19.20;100872.00;;;;4971642;28;20207;-48
2022/10/05 11:09:08;;;;;;;2.60;2.40;;;18.30;70.50;19.20;100865.00;;;;4958517;28;20230;-45
2022/10/05 11:12:04;;;;;;;3.23;2.57;;;18.30;70.50;19.20;100865.00;;;;4970044;28;20165;-44
2022/10/05 11:14:52;;;;;;;2.77;2.53;;;18.30;70.30;19.20;100853.00;;;;4969971;28;20652;-44
2022/10/05 11:17:30;;;;;;;2.93;2.50;;;18.30;70.40;19.20;100852.00;;;;4969412;28;20499;-47
2022/10/05 11:20:00;;;;;;;2.50;2.30;;;18.30;70.30;19.30;100846.00;;;;4969272;28;20729;-46
2022/10/05 11:22:54;;;;;;;2.57;2.20;;;18.30;70.30;19.30;100847.00;;;;4968620;28;20187;-44
2022/10/05 11:25:44;;;;;;;2.63;2.43;;;18.30;70.30;19.30;100833.00;;;;4968556;28;20597;-46
2022/10/05 11:28:46;;;;;;;3.13;2.47;;;18.30;70.30;19.40;100832.00;;;;4968226;28;20223;-45
2022/10/05 11:31:23;;;;;;;2.50;2.30;;;18.30;70.20;19.40;100829.00;;;;4968700;28;20180;-47
2022/10/05 11:34:23;;;;;;;2.40;2.20;;;18.30;70.20;19.40;100813.00;;;;4968631;28;20177;-45
2022/10/05 11:37:17;;;;;;;2.50;2.30;;;18.40;70.40;19.40;100803.00;;;;4968891;28;20193;-45
2022/10/05 11:40:42;;;;;;;4.30;2.40;;;18.40;70.60;19.40;100803.00;;;;4968971;28;20813;-46
2022/10/05 11:43:30;;;;;;;2.43;2.23;;;18.40;71.40;19.40;100801.00;;;;4912442;29;20170;-46
2022/10/05 11:46:19;;;;;;;2.80;2.47;;;18.50;70.90;19.40;100790.00;;;;4915288;28;20211;-44
2022/10/05 11:49:03;;;;;;;3.37;2.60;;;18.50;70.80;19.50;100757.00;;;;4962070;28;20200;-44
2022/10/05 11:51:58;;;;;;;2.60;2.40;;;18.50;70.70;19.50;100771.00;;;;4990311;28;20172;-46
2022/10/05 11:54:46;;;;;;;2.70;2.47;;;18.50;70.70;19.50;100773.00;;;;4982929;28;20230;-46
2022/10/05 11:57:27;;;;;;;2.60;2.40;;;18.50;70.50;19.50;100766.00;;;;4985648;28;20726;-45
2022/10/05 12:00:16;;;;;;;3.07;2.30;;;18.50;70.70;19.50;100753.00;;;;4972133;28;20674;-45
2022/10/05 12:03:21;;;;;;;2.60;2.40;;;18.60;70.70;19.60;100756.00;;;;4968313;28;20667;-45
2022/10/05 12:06:01;;;;;;;3.27;2.30;;;18.50;70.70;19.60;100741.00;;;;4970908;28;20213;-45
2022/10/05 12:08:52;;;;;;;3.10;2.13;;;18.60;70.80;19.60;100746.00;;;;4967663;28;20205;-45
2022/10/05 12:11:41;;;;;;;3.73;2.57;;;18.60;70.80;19.60;100743.00;;;;4952390;29;20166;-46
2022/10/05 12:14:23;;;;;;;3.37;2.30;;;18.60;70.80;19.60;100731.00;;;;4951508;29;20174;-45
2022/10/05 12:17:10;;;;;;;2.63;2.10;;;18.60;70.80;19.70;100719.00;;;;4961049;28;20200;-46
2022/10/05 12:19:43;;;;;;;2.97;2.67;;;18.60;70.90;19.70;100722.00;;;;4972035;28;20165;-46
2022/10/05 12:22:28;;;;;;;2.47;2.20;;;18.70;71.20;19.70;100717.00;;;;4956001;28;20165;-45